createdAt,value
2022-09-30T00:00:03.332Z,1.80
2022-09-30T00:01:03.239Z,1.50
2022-09-30T00:02:03.348Z,2.50
2022-09-30T00:03:03.273Z,2.50
2022-09-30T00:04:03.215Z,2.10
2022-09-30T00:05:03.213Z,2.30
2022-09-30T00:06:07.833Z,1.90
2022-09-30T00:07:04.177Z,2.30
2022-09-30T00:08:03.172Z,1.90
2022-09-30T00:09:03.188Z,1.90
2022-09-30T00:10:03.155Z,2.10
2022-09-30T00:11:03.159Z,2.00
2022-09-30T00:12:03.140Z,2.00
2022-09-30T00:13:03.114Z,1.80
2022-09-30T00:14:03.110Z,2.20
2022-09-30T00:15:03.100Z,2.20
2022-09-30T00:16:03.170Z,2.10
2022-09-30T00:17:03.070Z,1.80
2022-09-30T00:18:03.066Z,2.20
2022-09-30T00:19:03.050Z,2.60
2022-09-30T00:20:03.071Z,2.40
2022-09-30T00:21:03.030Z,2.50
2022-09-30T00:22:03.024Z,2.20
2022-09-30T00:23:03.015Z,2.30
2022-09-30T00:24:02.995Z,2.50
2022-09-30T00:25:03.003Z,2.50
2022-09-30T00:26:02.975Z,2.40
2022-09-30T00:27:03.000Z,2.00
2022-09-30T00:28:02.950Z,2.10
2022-09-30T00:29:02.934Z,2.20
2022-09-30T00:30:02.931Z,2.40
2022-09-30T00:31:03.003Z,2.20
2022-09-30T00:32:02.919Z,2.40
2022-09-30T00:33:02.906Z,2.40
2022-09-30T00:34:02.893Z,2.30
2022-09-30T00:35:02.871Z,2.00
2022-09-30T00:36:02.857Z,2.20
2022-09-30T00:37:02.851Z,2.70
2022-09-30T00:38:02.842Z,2.40
2022-09-30T00:39:02.846Z,2.20
2022-09-30T00:40:02.825Z,1.90
2022-09-30T00:41:02.805Z,1.90
2022-09-30T00:42:02.806Z,2.10
2022-09-30T00:43:02.807Z,2.30
2022-09-30T00:44:02.776Z,1.90
2022-09-30T00:45:02.764Z,1.80
2022-09-30T00:46:02.741Z,1.90
2022-09-30T00:47:02.778Z,2.00
2022-09-30T00:48:02.721Z,2.10
2022-09-30T00:49:02.707Z,2.10
2022-09-30T00:50:02.708Z,2.00
2022-09-30T00:51:02.697Z,2.30
2022-09-30T00:52:02.677Z,2.30
2022-09-30T00:53:02.678Z,2.30
2022-09-30T00:54:02.663Z,2.40
2022-09-30T00:55:02.645Z,2.60
2022-09-30T00:56:02.660Z,2.20
2022-09-30T00:57:02.629Z,2.90
2022-09-30T00:58:02.616Z,2.90
2022-09-30T00:59:02.630Z,2.90
2022-09-30T01:00:02.586Z,2.80
2022-09-30T01:01:02.649Z,2.70
2022-09-30T01:02:02.698Z,2.90
2022-09-30T01:03:02.559Z,3.10
2022-09-30T01:04:02.566Z,3.10
2022-09-30T01:05:02.539Z,3.20
2022-09-30T01:06:02.529Z,3.30
2022-09-30T01:07:02.508Z,3.30
2022-09-30T01:08:02.509Z,3.20
2022-09-30T01:09:02.530Z,3.70
2022-09-30T01:10:02.499Z,3.00
2022-09-30T01:11:07.883Z,3.20
2022-09-30T01:12:03.469Z,3.30
2022-09-30T01:13:02.448Z,3.70
2022-09-30T01:14:02.438Z,4.10
2022-09-30T01:15:02.444Z,3.50
2022-09-30T01:16:02.525Z,4.00
2022-09-30T01:17:02.406Z,4.10
2022-09-30T01:18:02.424Z,4.90
2022-09-30T01:19:02.375Z,4.60
2022-09-30T01:20:02.366Z,4.70
2022-09-30T01:21:02.354Z,4.60
2022-09-30T01:22:02.346Z,5.00
2022-09-30T01:23:02.339Z,5.10
2022-09-30T01:24:02.331Z,4.80
2022-09-30T01:25:02.314Z,4.90
2022-09-30T01:26:02.307Z,4.50
2022-09-30T01:27:02.295Z,4.20
2022-09-30T01:28:02.290Z,4.60
2022-09-30T01:29:02.272Z,5.50
2022-09-30T01:30:02.257Z,5.30
2022-09-30T01:31:02.357Z,5.50
2022-09-30T01:32:02.249Z,5.70
2022-09-30T01:33:02.226Z,5.00
2022-09-30T01:34:02.226Z,5.70
2022-09-30T01:35:02.216Z,5.40
2022-09-30T01:36:02.194Z,6.00
2022-09-30T01:37:02.234Z,5.70
2022-09-30T01:38:02.175Z,5.90
2022-09-30T01:39:02.171Z,6.20
2022-09-30T01:40:02.187Z,5.70
2022-09-30T01:41:02.138Z,5.80
2022-09-30T01:42:02.120Z,5.40
2022-09-30T01:43:02.113Z,6.20
2022-09-30T01:44:02.105Z,5.10
2022-09-30T01:45:02.099Z,5.10
2022-09-30T01:46:02.096Z,5.60
2022-09-30T01:47:02.160Z,5.90
2022-09-30T01:48:02.066Z,5.60
2022-09-30T01:49:02.054Z,5.60
2022-09-30T01:50:02.048Z,5.00
2022-09-30T01:51:02.025Z,5.10
2022-09-30T01:52:02.021Z,5.30
2022-09-30T01:53:02.011Z,5.10
2022-09-30T01:54:01.994Z,5.50
2022-09-30T01:55:01.976Z,5.10
2022-09-30T01:56:01.965Z,4.90
2022-09-30T01:57:01.959Z,5.00
2022-09-30T01:58:01.954Z,4.80
2022-09-30T01:59:01.947Z,4.70
2022-09-30T02:00:01.929Z,4.70
2022-09-30T02:01:02.026Z,5.10
2022-09-30T02:02:02.023Z,5.30
2022-09-30T02:03:01.938Z,4.60
2022-09-30T02:04:01.882Z,4.40
2022-09-30T02:05:01.869Z,3.90
2022-09-30T02:06:01.866Z,4.40
2022-09-30T02:07:01.847Z,4.50
2022-09-30T02:08:01.831Z,4.70
2022-09-30T02:09:01.887Z,4.70
2022-09-30T02:10:01.820Z,4.60
2022-09-30T02:11:01.818Z,4.50
2022-09-30T02:12:01.812Z,4.50
2022-09-30T02:13:01.783Z,5.30
2022-09-30T02:14:01.770Z,4.50
2022-09-30T02:15:01.756Z,5.10
2022-09-30T02:16:01.794Z,4.70
2022-09-30T02:17:01.737Z,4.40
2022-09-30T02:18:01.731Z,4.90
2022-09-30T02:19:01.761Z,5.30
2022-09-30T02:20:01.709Z,4.50
2022-09-30T02:21:01.698Z,4.70
2022-09-30T02:22:01.677Z,5.10
2022-09-30T02:23:01.667Z,5.10
2022-09-30T02:24:01.676Z,5.40
2022-09-30T02:25:01.642Z,5.00
2022-09-30T02:26:01.645Z,4.50
2022-09-30T02:27:01.627Z,5.10
2022-09-30T02:28:01.616Z,5.40
2022-09-30T02:29:01.611Z,4.80
2022-09-30T02:30:01.602Z,4.20
2022-09-30T02:31:01.658Z,5.00
2022-09-30T02:32:01.576Z,5.70
2022-09-30T02:33:01.565Z,4.90
2022-09-30T02:34:01.551Z,4.80
2022-09-30T02:35:01.570Z,4.20
2022-09-30T02:36:01.533Z,4.60
2022-09-30T02:37:01.520Z,4.60
2022-09-30T02:38:01.516Z,4.60
2022-09-30T02:39:01.486Z,4.70
2022-09-30T02:40:01.488Z,3.70
2022-09-30T02:41:01.469Z,4.30
2022-09-30T02:42:01.464Z,4.10
2022-09-30T02:43:01.469Z,4.00
2022-09-30T02:44:01.437Z,3.80
2022-09-30T02:45:01.429Z,3.60
2022-09-30T02:46:01.413Z,3.60
2022-09-30T02:47:01.511Z,4.00
2022-09-30T02:48:01.395Z,3.80
2022-09-30T02:49:01.375Z,3.60
2022-09-30T02:50:01.376Z,3.60
2022-09-30T02:51:01.431Z,3.60
2022-09-30T02:52:01.357Z,4.20
2022-09-30T02:53:01.358Z,4.30
2022-09-30T02:54:01.317Z,4.40
2022-09-30T02:55:01.345Z,4.00
2022-09-30T02:56:01.303Z,4.40
2022-09-30T02:57:01.289Z,4.00
2022-09-30T02:58:01.274Z,4.00
2022-09-30T02:59:01.274Z,4.20
2022-09-30T03:00:03.427Z,3.70
2022-09-30T03:01:01.354Z,4.90
2022-09-30T03:02:01.333Z,4.40
2022-09-30T03:03:01.229Z,4.60
2022-09-30T03:04:01.205Z,4.30
2022-09-30T03:05:01.207Z,3.70
2022-09-30T03:06:01.183Z,3.40
2022-09-30T03:07:01.249Z,3.80
2022-09-30T03:08:01.162Z,3.80
2022-09-30T03:09:01.198Z,3.80
2022-09-30T03:10:01.154Z,3.80
2022-09-30T03:11:01.145Z,3.60
2022-09-30T03:12:01.122Z,4.10
2022-09-30T03:13:01.113Z,4.70
2022-09-30T03:14:01.098Z,4.40
2022-09-30T03:15:01.094Z,3.90
2022-09-30T03:16:01.157Z,4.70
2022-09-30T03:17:01.090Z,4.00
2022-09-30T03:18:01.059Z,3.70
2022-09-30T03:19:01.060Z,3.70
2022-09-30T03:20:01.030Z,4.00
2022-09-30T03:21:01.027Z,4.10
2022-09-30T03:22:01.009Z,4.60
2022-09-30T03:23:01.027Z,4.20
2022-09-30T03:24:00.981Z,3.70
2022-09-30T03:25:00.976Z,3.70
2022-09-30T03:26:00.970Z,4.10
2022-09-30T03:27:00.968Z,4.30
2022-09-30T03:28:00.950Z,3.90
2022-09-30T03:29:00.948Z,3.90
2022-09-30T03:30:00.920Z,3.90
2022-09-30T03:31:00.953Z,4.40
2022-09-30T03:32:00.905Z,4.20
2022-09-30T03:33:00.885Z,3.60
2022-09-30T03:34:00.889Z,3.80
2022-09-30T03:35:00.863Z,3.70
2022-09-30T03:36:00.877Z,3.60
2022-09-30T03:37:03.978Z,3.80
2022-09-30T03:38:00.838Z,3.50
2022-09-30T03:39:00.838Z,4.30
2022-09-30T03:40:00.826Z,3.70
2022-09-30T03:41:00.800Z,3.60
2022-09-30T03:42:00.807Z,4.50
2022-09-30T03:43:00.793Z,3.60
2022-09-30T03:44:00.773Z,3.70
2022-09-30T03:45:00.755Z,4.10
2022-09-30T03:46:00.740Z,4.10
2022-09-30T03:47:00.744Z,4.60
2022-09-30T03:48:00.720Z,3.40
2022-09-30T03:49:00.729Z,4.00
2022-09-30T03:50:00.702Z,3.40
2022-09-30T03:51:00.715Z,3.90
2022-09-30T03:52:00.687Z,3.70
2022-09-30T03:53:00.667Z,4.30
2022-09-30T03:54:00.652Z,4.10
2022-09-30T03:55:00.661Z,4.30
2022-09-30T03:56:00.646Z,3.90
2022-09-30T03:57:00.629Z,4.20
2022-09-30T03:58:00.612Z,3.90
2022-09-30T03:59:00.595Z,3.50
2022-09-30T04:00:00.590Z,3.20
2022-09-30T04:01:00.633Z,3.90
2022-09-30T04:02:00.662Z,3.50
2022-09-30T04:03:00.567Z,3.60
2022-09-30T04:04:00.547Z,3.20
2022-09-30T04:05:00.537Z,3.50
2022-09-30T04:06:00.527Z,3.30
2022-09-30T04:07:00.521Z,3.10
2022-09-30T04:08:00.508Z,3.10
2022-09-30T04:09:00.524Z,3.00
2022-09-30T04:10:00.484Z,2.90
2022-09-30T04:11:00.490Z,3.20
2022-09-30T04:12:00.448Z,3.60
2022-09-30T04:13:00.443Z,2.60
2022-09-30T04:14:00.431Z,2.70
2022-09-30T04:15:00.422Z,3.10
2022-09-30T04:16:00.464Z,3.20
2022-09-30T04:17:00.405Z,3.50
2022-09-30T04:18:00.387Z,2.50
2022-09-30T04:19:00.382Z,3.10
2022-09-30T04:20:00.366Z,2.50
2022-09-30T04:21:00.376Z,2.70
2022-09-30T04:22:00.346Z,2.50
2022-09-30T04:23:00.331Z,3.40
2022-09-30T04:24:00.343Z,2.60
2022-09-30T04:25:00.319Z,2.80
2022-09-30T04:26:00.300Z,2.60
2022-09-30T04:27:00.303Z,3.30
2022-09-30T04:28:00.288Z,2.70
2022-09-30T04:29:00.278Z,3.00
2022-09-30T04:30:00.251Z,2.70
2022-09-30T04:31:00.242Z,3.60
2022-09-30T04:32:00.224Z,3.30
2022-09-30T04:33:00.222Z,3.30
2022-09-30T04:34:00.208Z,3.40
2022-09-30T04:35:00.203Z,2.90
2022-09-30T04:36:00.198Z,3.20
2022-09-30T04:37:00.182Z,3.10
2022-09-30T04:38:00.159Z,3.80
2022-09-30T04:39:00.155Z,3.50
2022-09-30T04:40:00.140Z,3.50
2022-09-30T04:41:00.127Z,3.70
2022-09-30T04:42:00.139Z,3.10
2022-09-30T04:43:00.135Z,3.10
2022-09-30T04:44:00.090Z,3.00
2022-09-30T04:45:00.086Z,2.80
2022-09-30T04:46:00.179Z,3.60
2022-09-30T04:47:00.060Z,3.10
2022-09-30T04:48:00.078Z,3.40
2022-09-30T04:49:00.047Z,3.60
2022-09-30T04:50:00.035Z,3.60
2022-09-30T04:51:00.042Z,3.50
2022-09-30T04:52:00.012Z,3.30
2022-09-30T04:52:59.991Z,3.50
2022-09-30T04:53:59.991Z,3.90
2022-09-30T04:54:59.969Z,3.70
2022-09-30T04:55:59.961Z,4.30
2022-09-30T04:56:59.954Z,3.70
2022-09-30T04:57:59.949Z,3.50
2022-09-30T04:58:59.950Z,4.00
2022-09-30T04:59:59.912Z,4.00
2022-09-30T05:00:59.959Z,4.10
2022-09-30T05:02:00.013Z,4.20
2022-09-30T05:02:59.893Z,4.40
2022-09-30T05:03:59.890Z,4.40
2022-09-30T05:04:59.857Z,4.30
2022-09-30T05:05:59.863Z,4.10
2022-09-30T05:06:59.978Z,3.90
2022-09-30T05:07:59.840Z,4.10
2022-09-30T05:08:59.875Z,4.30
2022-09-30T05:09:59.831Z,4.00
2022-09-30T05:10:59.794Z,4.60
2022-09-30T05:11:59.782Z,4.70
2022-09-30T05:12:59.823Z,4.70
2022-09-30T05:13:59.767Z,4.90
2022-09-30T05:14:59.766Z,4.80
2022-09-30T05:15:59.813Z,4.80
2022-09-30T05:16:59.744Z,5.20
2022-09-30T05:17:59.733Z,4.80
2022-09-30T05:18:59.719Z,4.30
2022-09-30T05:19:59.704Z,4.90
2022-09-30T05:20:59.687Z,4.60
2022-09-30T05:21:59.704Z,5.00
2022-09-30T05:22:59.676Z,5.20
2022-09-30T05:23:59.663Z,4.60
2022-09-30T05:24:59.642Z,4.80
2022-09-30T05:25:59.630Z,4.70
2022-09-30T05:26:59.622Z,5.60
2022-09-30T05:27:59.614Z,4.70
2022-09-30T05:28:59.608Z,5.20
2022-09-30T05:30:00.411Z,5.30
2022-09-30T05:30:59.683Z,4.40
2022-09-30T05:31:59.675Z,5.30
2022-09-30T05:32:59.552Z,5.00
2022-09-30T05:33:59.550Z,4.90
2022-09-30T05:34:59.544Z,5.00
2022-09-30T05:35:59.508Z,4.90
2022-09-30T05:37:00.396Z,4.90
2022-09-30T05:37:59.529Z,4.50
2022-09-30T05:38:59.502Z,5.30
2022-09-30T05:39:59.482Z,5.30
2022-09-30T05:41:00.426Z,5.60
2022-09-30T05:41:59.485Z,4.90
2022-09-30T05:42:59.466Z,4.70
2022-09-30T05:43:59.452Z,4.30
2022-09-30T05:44:59.414Z,4.90
2022-09-30T05:45:59.428Z,5.20
2022-09-30T05:46:59.452Z,5.10
2022-09-30T05:47:59.397Z,5.30
2022-09-30T05:48:59.432Z,5.20
2022-09-30T05:49:59.353Z,5.50
2022-09-30T05:50:59.401Z,4.50
2022-09-30T05:51:59.344Z,5.50
2022-09-30T05:52:59.341Z,5.30
2022-09-30T05:53:59.315Z,5.30
2022-09-30T05:54:59.445Z,5.30
2022-09-30T05:55:59.303Z,5.30
2022-09-30T05:56:59.319Z,5.60
2022-09-30T05:57:59.266Z,5.50
2022-09-30T05:58:59.263Z,5.70
2022-09-30T05:59:59.258Z,5.40
2022-09-30T06:01:05.581Z,5.20
2022-09-30T06:02:00.393Z,5.70
2022-09-30T06:02:59.354Z,5.70
2022-09-30T06:03:59.226Z,5.30
2022-09-30T06:04:59.198Z,5.40
2022-09-30T06:05:59.186Z,6.40
2022-09-30T06:06:59.256Z,5.90
2022-09-30T06:07:59.158Z,6.00
2022-09-30T06:08:59.202Z,6.50
2022-09-30T06:09:59.168Z,6.90
2022-09-30T06:10:59.131Z,6.00
2022-09-30T06:11:59.916Z,7.00
2022-09-30T06:12:59.105Z,6.90
2022-09-30T06:13:59.141Z,7.00
2022-09-30T06:14:59.171Z,6.60
2022-09-30T06:15:59.193Z,6.30
2022-09-30T06:16:59.434Z,6.60
2022-09-30T06:17:59.079Z,6.90
2022-09-30T06:18:59.066Z,7.30
2022-09-30T06:19:59.038Z,6.80
2022-09-30T06:20:59.030Z,7.10
2022-09-30T06:21:59.006Z,6.70
2022-09-30T06:22:58.984Z,6.50
2022-09-30T06:23:59.018Z,7.00
2022-09-30T06:24:58.980Z,6.60
2022-09-30T06:25:58.978Z,6.80
2022-09-30T06:26:58.945Z,6.60
2022-09-30T06:27:58.951Z,7.20
2022-09-30T06:28:58.949Z,6.90
2022-09-30T06:29:58.942Z,6.90
2022-09-30T06:30:58.902Z,7.10
2022-09-30T06:31:58.973Z,6.90
2022-09-30T06:32:58.894Z,6.10
2022-09-30T06:33:58.924Z,6.80
2022-09-30T06:34:58.886Z,6.80
2022-09-30T06:35:58.854Z,7.30
2022-09-30T06:36:58.827Z,7.10
2022-09-30T06:37:58.831Z,6.80
2022-09-30T06:38:58.854Z,7.00
2022-09-30T06:39:58.817Z,6.50
2022-09-30T06:40:58.795Z,6.30
2022-09-30T06:41:58.860Z,7.10
2022-09-30T06:42:58.790Z,6.90
2022-09-30T06:44:10.536Z,6.90
2022-09-30T06:45:00.425Z,7.50
2022-09-30T06:46:10.633Z,7.10
2022-09-30T06:46:59.840Z,7.90
2022-09-30T06:48:00.673Z,7.70
2022-09-30T06:49:13.520Z,6.70
2022-09-30T06:49:59.701Z,7.30
2022-09-30T06:51:01.858Z,7.60
2022-09-30T06:51:58.683Z,7.80
2022-09-30T06:52:58.713Z,7.60
2022-09-30T06:53:58.645Z,7.30
2022-09-30T06:54:58.638Z,6.90
2022-09-30T06:55:58.618Z,7.80
2022-09-30T06:56:58.619Z,7.30
2022-09-30T06:57:58.616Z,8.00
2022-09-30T06:58:58.587Z,8.20
2022-09-30T06:59:58.658Z,7.20
2022-09-30T07:00:58.647Z,7.40
2022-09-30T07:01:58.613Z,7.30
2022-09-30T07:02:58.575Z,7.90
2022-09-30T07:03:58.552Z,7.50
2022-09-30T07:04:58.590Z,6.70
2022-09-30T07:05:58.508Z,7.40
2022-09-30T07:06:58.593Z,7.40
2022-09-30T07:07:58.516Z,7.40
2022-09-30T07:08:58.577Z,7.80
2022-09-30T07:09:59.902Z,7.10
2022-09-30T07:10:58.448Z,7.30
2022-09-30T07:11:58.461Z,7.20
2022-09-30T07:12:58.460Z,6.70
2022-09-30T07:13:58.429Z,8.10
2022-09-30T07:14:58.401Z,6.90
2022-09-30T07:15:58.514Z,7.30
2022-09-30T07:16:58.403Z,7.40
2022-09-30T07:17:58.373Z,7.50
2022-09-30T07:18:58.483Z,7.50
2022-09-30T07:19:58.397Z,7.70
2022-09-30T07:20:58.364Z,8.10
2022-09-30T07:21:58.908Z,8.20
2022-09-30T07:22:58.394Z,6.60
2022-09-30T07:23:58.316Z,6.80
2022-09-30T07:24:58.297Z,8.10
2022-09-30T07:25:58.317Z,7.60
2022-09-30T07:26:58.311Z,6.60
2022-09-30T07:27:58.269Z,7.60
2022-09-30T07:28:58.254Z,8.40
2022-09-30T07:30:08.789Z,8.50
2022-09-30T07:31:20.089Z,8.00
2022-09-30T07:31:59.300Z,7.00
2022-09-30T07:32:58.220Z,7.80
2022-09-30T07:33:58.211Z,8.50
2022-09-30T07:34:58.215Z,8.40
2022-09-30T07:35:58.235Z,8.40
2022-09-30T07:36:58.184Z,7.90
2022-09-30T07:37:58.180Z,8.00
2022-09-30T07:38:58.159Z,8.40
2022-09-30T07:39:58.162Z,8.60
2022-09-30T07:40:58.139Z,8.00
2022-09-30T07:41:59.433Z,8.00
2022-09-30T07:42:58.096Z,8.60
2022-09-30T07:43:58.083Z,8.10
2022-09-30T07:44:58.098Z,8.20
2022-09-30T07:45:58.112Z,8.60
2022-09-30T07:46:58.136Z,9.20
2022-09-30T07:47:58.056Z,8.60
2022-09-30T07:48:58.061Z,8.50
2022-09-30T07:49:58.044Z,7.80
2022-09-30T07:50:58.041Z,8.40
2022-09-30T07:51:58.005Z,8.40
2022-09-30T07:52:57.996Z,8.60
2022-09-30T07:53:58.031Z,7.70
2022-09-30T07:54:58.032Z,8.10
2022-09-30T07:55:57.960Z,8.20
2022-09-30T07:57:09.643Z,8.10
2022-09-30T07:57:58.934Z,8.40
2022-09-30T07:58:57.945Z,7.60
2022-09-30T07:59:57.958Z,7.60
2022-09-30T08:00:57.986Z,8.10
2022-09-30T08:01:57.931Z,7.70
2022-09-30T08:02:57.932Z,7.70
2022-09-30T08:03:57.882Z,7.40
2022-09-30T08:04:57.945Z,7.00
2022-09-30T08:05:58.392Z,7.40
2022-09-30T08:06:58.034Z,7.40
2022-09-30T08:07:57.825Z,7.30
2022-09-30T08:08:57.835Z,7.20
2022-09-30T08:09:57.876Z,7.20
2022-09-30T08:10:58.432Z,7.00
2022-09-30T08:11:57.790Z,7.20
2022-09-30T08:12:59.942Z,7.00
2022-09-30T08:13:57.796Z,7.30
2022-09-30T08:14:57.758Z,7.00
2022-09-30T08:15:57.740Z,7.10
2022-09-30T08:16:57.804Z,6.50
2022-09-30T08:17:57.741Z,6.50
2022-09-30T08:18:57.735Z,6.60
2022-09-30T08:19:57.766Z,6.50
2022-09-30T08:20:57.672Z,7.40
2022-09-30T08:21:57.904Z,7.70
2022-09-30T08:22:57.676Z,7.60
2022-09-30T08:23:57.946Z,7.70
2022-09-30T08:24:57.715Z,6.90
2022-09-30T08:25:57.627Z,6.90
2022-09-30T08:26:57.715Z,6.60
2022-09-30T08:27:57.610Z,6.90
2022-09-30T08:28:57.622Z,6.90
2022-09-30T08:30:01.158Z,7.50
2022-09-30T08:30:58.598Z,7.10
2022-09-30T08:31:57.618Z,7.50
2022-09-30T08:32:57.581Z,7.00
2022-09-30T08:33:57.551Z,6.80
2022-09-30T08:34:57.537Z,7.20
2022-09-30T08:35:57.515Z,6.50
2022-09-30T08:36:59.691Z,6.60
2022-09-30T08:37:57.544Z,7.20
2022-09-30T08:38:57.502Z,7.40
2022-09-30T08:39:57.481Z,7.10
2022-09-30T08:40:57.464Z,6.60
2022-09-30T08:41:59.766Z,6.60
2022-09-30T08:42:57.878Z,7.40
2022-09-30T08:43:57.433Z,7.70
2022-09-30T08:44:57.479Z,7.40
2022-09-30T08:45:57.583Z,7.40
2022-09-30T08:46:58.494Z,6.80
2022-09-30T08:47:57.435Z,6.60
2022-09-30T08:48:59.887Z,6.60
2022-09-30T08:49:59.979Z,6.10
2022-09-30T08:50:57.344Z,6.50
2022-09-30T08:51:57.924Z,6.30
2022-09-30T08:52:59.938Z,6.80
2022-09-30T08:53:57.318Z,7.20
2022-09-30T08:54:57.324Z,6.80
2022-09-30T08:55:57.346Z,6.30
2022-09-30T08:56:57.293Z,6.50
2022-09-30T08:57:57.331Z,6.50
2022-09-30T08:58:57.511Z,6.50
2022-09-30T08:59:57.244Z,6.80
2022-09-30T09:00:57.361Z,6.10
2022-09-30T09:01:57.375Z,6.20
2022-09-30T09:02:57.285Z,6.40
2022-09-30T09:03:57.195Z,6.20
2022-09-30T09:04:57.186Z,6.30
2022-09-30T09:05:57.200Z,7.00
2022-09-30T09:06:57.193Z,6.60
2022-09-30T09:07:57.164Z,6.30
2022-09-30T09:08:57.166Z,5.40
2022-09-30T09:09:57.131Z,5.70
2022-09-30T09:10:57.130Z,6.40
2022-09-30T09:11:57.187Z,6.60
2022-09-30T09:12:58.128Z,5.70
2022-09-30T09:13:57.082Z,5.80
2022-09-30T09:14:57.132Z,6.20
2022-09-30T09:15:57.078Z,6.00
2022-09-30T09:16:57.106Z,5.60
2022-09-30T09:18:18.799Z,5.80
2022-09-30T09:18:58.034Z,5.40
2022-09-30T09:19:57.101Z,5.40
2022-09-30T09:20:57.049Z,6.00
2022-09-30T09:22:01.955Z,5.20
2022-09-30T09:22:56.995Z,5.70
2022-09-30T09:23:57.891Z,5.50
2022-09-30T09:24:56.993Z,5.40
2022-09-30T09:25:56.979Z,5.50
2022-09-30T09:26:57.890Z,4.60
2022-09-30T09:27:57.525Z,4.50
2022-09-30T09:28:57.912Z,4.70
2022-09-30T09:29:56.953Z,4.90
2022-09-30T09:30:57.489Z,4.40
2022-09-30T09:31:56.925Z,4.50
2022-09-30T09:32:56.919Z,4.10
2022-09-30T09:33:56.892Z,4.30
2022-09-30T09:34:58.424Z,4.30
2022-09-30T09:35:56.855Z,3.90
2022-09-30T09:36:56.828Z,4.00
2022-09-30T09:37:56.852Z,4.10
2022-09-30T09:38:56.844Z,4.10
2022-09-30T09:40:01.705Z,3.60
2022-09-30T09:40:58.044Z,3.60
2022-09-30T09:41:56.773Z,3.60
2022-09-30T09:42:57.426Z,3.70
2022-09-30T09:43:56.795Z,3.40
2022-09-30T09:44:56.763Z,3.60
2022-09-30T09:45:56.800Z,3.30
2022-09-30T09:46:56.760Z,3.00
2022-09-30T09:47:56.732Z,3.50
2022-09-30T09:48:56.745Z,3.30
2022-09-30T09:49:57.544Z,3.70
2022-09-30T09:50:56.679Z,3.80
2022-09-30T09:51:56.702Z,3.60
2022-09-30T09:52:56.717Z,3.50
2022-09-30T09:53:56.647Z,3.40
2022-09-30T09:54:56.708Z,3.10
2022-09-30T09:55:56.643Z,3.50
2022-09-30T09:56:56.607Z,2.80
2022-09-30T09:57:56.587Z,3.10
2022-09-30T09:58:56.590Z,3.40
2022-09-30T09:59:56.760Z,2.70
2022-09-30T10:00:56.608Z,2.80
2022-09-30T10:01:56.579Z,2.90
2022-09-30T10:02:56.583Z,2.60
2022-09-30T10:03:56.523Z,2.80
2022-09-30T10:04:56.544Z,2.70
2022-09-30T10:05:56.526Z,2.90
2022-09-30T10:06:56.941Z,2.60
2022-09-30T10:07:56.489Z,2.70
2022-09-30T10:08:56.565Z,2.40
2022-09-30T10:09:56.470Z,2.20
2022-09-30T10:10:56.516Z,2.60
2022-09-30T10:11:56.455Z,2.30
2022-09-30T10:12:56.428Z,2.50
2022-09-30T10:13:56.446Z,2.20
2022-09-30T10:14:56.466Z,1.90
2022-09-30T10:15:56.457Z,2.30
2022-09-30T10:16:56.371Z,2.10
2022-09-30T10:17:56.373Z,2.30
2022-09-30T10:18:56.412Z,2.20
2022-09-30T10:19:56.348Z,2.20
2022-09-30T10:20:56.352Z,1.90
2022-09-30T10:21:57.460Z,2.50
2022-09-30T10:22:56.318Z,2.10
2022-09-30T10:23:56.316Z,2.90
2022-09-30T10:24:56.411Z,1.90
2022-09-30T10:25:56.332Z,2.10
2022-09-30T10:26:56.292Z,2.40
2022-09-30T10:27:56.393Z,2.10
2022-09-30T10:28:56.263Z,1.90
2022-09-30T10:29:56.246Z,2.20
2022-09-30T10:30:56.218Z,2.20
2022-09-30T10:31:59.149Z,2.00
2022-09-30T10:32:56.258Z,1.90
2022-09-30T10:33:56.200Z,2.10
2022-09-30T10:34:56.202Z,2.40
2022-09-30T10:35:56.910Z,1.90
2022-09-30T10:36:56.192Z,2.10
2022-09-30T10:37:56.165Z,1.90
2022-09-30T10:38:56.158Z,1.50
2022-09-30T10:39:56.123Z,1.80
2022-09-30T10:40:56.172Z,1.50
2022-09-30T10:41:56.115Z,1.70
2022-09-30T10:42:56.131Z,1.50
2022-09-30T10:43:56.069Z,1.80
2022-09-30T10:44:56.054Z,2.00
2022-09-30T10:46:20.871Z,2.10
2022-09-30T10:46:57.156Z,1.70
2022-09-30T10:47:56.042Z,1.90
2022-09-30T10:48:56.014Z,1.90
2022-09-30T10:49:56.140Z,1.70
2022-09-30T10:50:56.023Z,2.00
2022-09-30T10:51:55.986Z,1.60
2022-09-30T10:52:55.996Z,1.70
2022-09-30T10:53:56.488Z,1.60
2022-09-30T10:54:56.041Z,1.70
2022-09-30T10:55:55.948Z,1.70
2022-09-30T10:56:55.921Z,1.30
2022-09-30T10:57:55.916Z,1.70
2022-09-30T10:59:55.925Z,1.30
2022-09-30T11:00:55.958Z,1.60
2022-09-30T11:01:57.630Z,1.30
2022-09-30T11:02:55.911Z,1.50
2022-09-30T11:03:55.936Z,1.50
2022-09-30T11:04:55.867Z,1.50
2022-09-30T11:05:55.831Z,1.20
2022-09-30T11:06:55.851Z,1.30
2022-09-30T11:07:55.805Z,1.20
2022-09-30T11:08:55.826Z,1.40
2022-09-30T11:09:55.769Z,1.30
2022-09-30T11:10:55.768Z,1.20
2022-09-30T11:11:55.746Z,1.30
2022-09-30T11:12:55.794Z,1.10
2022-09-30T11:13:55.765Z,0.90
2022-09-30T11:14:55.737Z,1.00
2022-09-30T11:15:55.778Z,1.20
2022-09-30T11:16:55.742Z,1.20
2022-09-30T11:17:55.683Z,1.10
2022-09-30T11:18:55.663Z,1.20
2022-09-30T11:19:55.676Z,1.10
2022-09-30T11:20:55.682Z,1.00
2022-09-30T11:21:55.656Z,1.20
2022-09-30T11:22:55.788Z,0.90
2022-09-30T11:23:55.610Z,1.00
2022-09-30T11:24:55.667Z,0.90
2022-09-30T11:25:55.640Z,1.10
2022-09-30T11:26:55.621Z,1.10
2022-09-30T11:27:55.706Z,1.10
2022-09-30T11:28:55.551Z,1.40
2022-09-30T11:29:55.559Z,1.10
2022-09-30T11:30:55.564Z,1.00
2022-09-30T11:31:55.666Z,1.00
2022-09-30T11:32:55.557Z,1.10
2022-09-30T11:33:56.412Z,0.80
2022-09-30T11:34:55.549Z,1.10
2022-09-30T11:35:55.565Z,1.00
2022-09-30T11:36:55.482Z,1.00
2022-09-30T11:37:55.465Z,0.90
2022-09-30T11:38:55.511Z,1.00
2022-09-30T11:39:55.440Z,1.00
2022-09-30T11:40:55.444Z,0.70
2022-09-30T11:41:55.427Z,0.90
2022-09-30T11:42:55.474Z,0.80
2022-09-30T11:43:55.411Z,1.10
2022-09-30T11:44:55.415Z,1.10
2022-09-30T11:45:55.450Z,0.80
2022-09-30T11:46:55.355Z,0.90
2022-09-30T11:47:55.377Z,1.00
2022-09-30T11:48:55.353Z,0.80
2022-09-30T11:49:55.345Z,0.90
2022-09-30T11:50:55.326Z,0.70
2022-09-30T11:51:55.302Z,0.60
2022-09-30T11:52:55.284Z,0.90
2022-09-30T11:53:55.285Z,0.70
2022-09-30T11:54:57.937Z,1.20
2022-09-30T11:55:55.262Z,0.90
2022-09-30T11:56:55.314Z,0.70
2022-09-30T11:57:55.923Z,0.90
2022-09-30T11:58:55.228Z,0.90
2022-09-30T11:59:55.298Z,0.70
2022-09-30T12:00:55.901Z,1.10
2022-09-30T12:01:55.483Z,0.90
2022-09-30T12:02:55.266Z,0.90
2022-09-30T12:03:55.167Z,0.90
2022-09-30T12:04:58.024Z,1.00
2022-09-30T12:05:55.156Z,0.80
2022-09-30T12:06:55.129Z,0.80
2022-09-30T12:07:55.142Z,0.90
2022-09-30T12:08:55.126Z,1.00
2022-09-30T12:09:55.117Z,1.00
2022-09-30T12:10:55.115Z,0.90
2022-09-30T12:11:55.113Z,0.70
2022-09-30T12:12:55.075Z,1.20
2022-09-30T12:13:55.066Z,0.90
2022-09-30T12:14:55.060Z,1.00
2022-09-30T12:15:55.436Z,1.10
2022-09-30T12:16:55.128Z,1.00
2022-09-30T12:17:55.014Z,0.90
2022-09-30T12:18:55.018Z,1.00
2022-09-30T12:19:54.984Z,0.90
2022-09-30T12:20:54.965Z,1.00
2022-09-30T12:21:55.000Z,0.90
2022-09-30T12:22:54.979Z,0.80
2022-09-30T12:23:54.953Z,0.70
2022-09-30T12:24:54.920Z,0.70
2022-09-30T12:25:54.986Z,0.70
2022-09-30T12:26:54.949Z,0.80
2022-09-30T12:27:54.942Z,0.90
2022-09-30T12:28:54.892Z,0.70
2022-09-30T12:29:54.884Z,1.00
2022-09-30T12:30:54.860Z,0.60
2022-09-30T12:31:55.023Z,1.10
2022-09-30T12:32:54.866Z,0.80
2022-09-30T12:33:54.833Z,0.80
2022-09-30T12:34:54.824Z,0.80
2022-09-30T12:35:54.838Z,0.90
2022-09-30T12:36:54.864Z,1.00
2022-09-30T12:37:54.803Z,0.80
2022-09-30T12:38:54.767Z,0.70
2022-09-30T12:39:54.770Z,0.70
2022-09-30T12:40:54.809Z,0.60
2022-09-30T12:41:54.742Z,0.60
2022-09-30T12:42:54.763Z,0.70
2022-09-30T12:43:54.712Z,0.50
2022-09-30T12:44:54.699Z,0.50
2022-09-30T12:45:54.813Z,0.60
2022-09-30T12:46:54.689Z,0.70
2022-09-30T12:47:54.685Z,0.60
2022-09-30T12:48:54.673Z,0.70
2022-09-30T12:49:54.660Z,0.40
2022-09-30T12:50:55.497Z,0.70
2022-09-30T12:51:55.476Z,0.70
2022-09-30T12:52:54.624Z,0.70
2022-09-30T12:53:54.633Z,0.50
2022-09-30T12:54:54.624Z,0.70
2022-09-30T12:55:54.600Z,0.60
2022-09-30T12:56:54.596Z,0.60
2022-09-30T12:57:54.556Z,0.60
2022-09-30T12:58:54.581Z,0.60
2022-09-30T12:59:54.558Z,0.60
2022-09-30T13:00:54.589Z,0.70
2022-09-30T13:01:54.600Z,0.60
2022-09-30T13:02:54.522Z,0.60
2022-09-30T13:03:54.501Z,0.60
2022-09-30T13:04:54.511Z,0.70
2022-09-30T13:05:54.476Z,0.60
2022-09-30T13:06:54.479Z,0.70
2022-09-30T13:07:54.468Z,0.70
2022-09-30T13:08:54.484Z,0.60
2022-09-30T13:09:54.448Z,1.30
2022-09-30T13:10:54.413Z,0.60
2022-09-30T13:11:54.420Z,1.10
2022-09-30T13:12:54.407Z,0.70
2022-09-30T13:13:54.418Z,0.80
2022-09-30T13:14:54.417Z,0.80
2022-09-30T13:15:54.376Z,0.80
2022-09-30T13:16:54.408Z,0.80
2022-09-30T13:17:54.341Z,1.10
2022-09-30T13:18:54.354Z,1.00